createdAt,value
2019-04-26T19:25:29.935Z,43.60
2019-04-26T19:28:04.304Z,32.30
2019-04-26T19:30:33.903Z,42.20
2019-04-26T19:33:11.743Z,33.87
2019-04-26T19:35:43.499Z,25.37
2019-04-26T19:38:14.714Z,43.10
2019-04-26T19:40:47.950Z,47.03
2019-04-26T19:43:30.747Z,46.13
2019-04-26T19:46:10.007Z,38.17
2019-04-26T19:49:15.487Z,30.00
2019-04-26T19:52:04.272Z,44.43
2019-04-26T19:54:41.689Z,31.13
2019-04-26T19:57:18.073Z,27.50
2019-04-26T19:59:50.208Z,24.27
2019-04-26T20:02:22.544Z,20.90
2019-04-26T20:04:54.296Z,19.57
2019-04-26T20:07:28.238Z,18.63
2019-04-26T20:10:02.376Z,19.43
2019-04-26T20:12:37.019Z,20.37
2019-04-26T20:15:07.492Z,24.80
2019-04-26T20:20:23.227Z,29.47
2019-04-26T20:22:53.616Z,32.23
2019-04-26T20:25:26.368Z,32.13
2019-04-26T20:28:00.007Z,31.43
2019-04-26T20:30:57.899Z,30.00
2019-04-26T20:33:31.077Z,31.50
2019-04-26T20:36:04.925Z,33.60
2019-04-26T20:38:43.796Z,32.70
2019-04-26T20:41:13.218Z,34.30
2019-04-26T20:43:52.293Z,35.87
2019-04-26T20:46:18.187Z,36.77
2019-04-26T22:47:24.149Z,18.63
2019-04-26T22:49:56.264Z,19.20
2019-04-26T22:52:28.309Z,19.43
2019-04-26T22:55:00.898Z,20.77
2019-04-26T22:57:33.353Z,18.63
2019-04-26T23:00:06.278Z,19.83
2019-04-26T23:02:38.876Z,19.87
2019-04-26T23:05:10.300Z,16.37
2019-04-26T23:07:41.882Z,17.47
2019-04-26T23:10:15.286Z,16.00
2019-04-26T23:13:04.518Z,16.20
2019-04-26T23:16:11.106Z,17.00
2019-04-26T23:18:58.204Z,17.70
2019-04-26T23:21:35.809Z,18.17
2019-04-26T23:24:07.054Z,18.60
2019-04-26T23:26:41.662Z,18.33
2019-04-26T23:29:16.321Z,18.73
2019-04-26T23:31:44.747Z,17.50
2019-04-26T23:34:17.086Z,16.93
2019-04-26T23:36:50.141Z,17.27
2019-04-26T23:39:22.833Z,17.27
2019-04-26T23:41:54.124Z,16.43
2019-04-26T23:44:25.314Z,16.30
2019-04-26T23:47:01.346Z,16.80
2019-04-26T23:49:29.194Z,16.67
2019-04-26T23:52:00.825Z,16.40
2019-04-26T23:54:35.828Z,17.57
2019-04-26T23:57:06.051Z,15.67
2019-04-26T23:59:37.702Z,16.33
